Healdville, Vermont
Current Conditions -  °F | °C
As of 2:55 AM on Friday 24 Oct 2014 (Local Time) from KRUT Reporting Station
Overcast Overcast  
Wind Chill: 37°   Ceiling: 400
Heat Index: 41°   Visibility: 3mi
Dew Point: 39°   Wind: 6mph
Humidity: 93%   Direction: 330°NNW
Pressure: 29.79"   Gusts: NA
Location:  43.437°N, 72.7883°W
Report Text: KRUT 240655Z 33005KT 3SM OVC004 05/04 A2979 RMK AO1
Loading
Personal Weather Stations






























Interactive Weather Map
Tropical Storm Tracking
New forecast layout! Learn more

10-Day Weather Forecast

Advertisements
Track Severe Weather on mobile